sensor_id;sensor_type;location;lat;lon;timestamp;P1;durP1;ratioP1;P2;durP2;ratioP2
21392;SDS011;10857;52.228;21.026;2024-01-07T00:00:18;34.40;;;14.97;;
21392;SDS011;10857;52.228;21.026;2024-01-07T00:02:45;36.60;;;15.30;;
21392;SDS011;10857;52.228;21.026;2024-01-07T00:05:13;35.77;;;15.27;;
21392;SDS011;10857;52.228;21.026;2024-01-07T00:07:40;36.03;;;15.63;;
21392;SDS011;10857;52.228;21.026;2024-01-07T00:10:07;34.43;;;15.17;;
21392;SDS011;10857;52.228;21.026;2024-01-07T00:12:35;31.33;;;14.60;;
21392;SDS011;10857;52.228;21.026;2024-01-07T00:15:02;35.43;;;15.10;;
21392;SDS011;10857;52.228;21.026;2024-01-07T00:17:30;35.23;;;15.10;;
21392;SDS011;10857;52.228;21.026;2024-01-07T00:19:57;37.83;;;15.23;;
21392;SDS011;10857;52.228;21.026;2024-01-07T00:22:24;39.00;;;16.07;;
21392;SDS011;10857;52.228;21.026;2024-01-07T00:24:51;36.57;;;15.10;;
21392;SDS011;10857;52.228;21.026;2024-01-07T00:27:18;37.27;;;15.40;;
21392;SDS011;10857;52.228;21.026;2024-01-07T00:29:45;35.00;;;15.47;;
21392;SDS011;10857;52.228;21.026;2024-01-07T00:32:12;33.60;;;14.97;;
21392;SDS011;10857;52.228;21.026;2024-01-07T00:34:40;33.57;;;15.30;;
21392;SDS011;10857;52.228;21.026;2024-01-07T00:37:07;37.07;;;16.33;;
21392;SDS011;10857;52.228;21.026;2024-01-07T00:39:35;39.37;;;16.13;;
21392;SDS011;10857;52.228;21.026;2024-01-07T00:42:02;36.63;;;15.57;;
21392;SDS011;10857;52.228;21.026;2024-01-07T00:44:30;31.77;;;15.93;;
21392;SDS011;10857;52.228;21.026;2024-01-07T00:46:57;37.23;;;16.50;;
21392;SDS011;10857;52.228;21.026;2024-01-07T00:49:24;36.23;;;15.53;;
21392;SDS011;10857;52.228;21.026;2024-01-07T00:51:51;37.03;;;16.50;;
21392;SDS011;10857;52.228;21.026;2024-01-07T00:54:18;35.47;;;15.77;;
21392;SDS011;10857;52.228;21.026;2024-01-07T00:56:45;36.47;;;16.27;;
21392;SDS011;10857;52.228;21.026;2024-01-07T00:59:13;40.67;;;17.03;;
21392;SDS011;10857;52.228;21.026;2024-01-07T01:01:40;38.97;;;16.47;;
21392;SDS011;10857;52.228;21.026;2024-01-07T01:04:07;36.47;;;16.13;;
21392;SDS011;10857;52.228;21.026;2024-01-07T01:06:34;40.27;;;16.13;;
21392;SDS011;10857;52.228;21.026;2024-01-07T01:09:01;36.77;;;16.20;;
21392;SDS011;10857;52.228;21.026;2024-01-07T01:11:28;35.93;;;17.37;;
21392;SDS011;10857;52.228;21.026;2024-01-07T01:13:55;41.90;;;17.47;;
21392;SDS011;10857;52.228;21.026;2024-01-07T01:16:22;38.10;;;16.93;;
21392;SDS011;10857;52.228;21.026;2024-01-07T01:18:51;39.47;;;17.57;;
21392;SDS011;10857;52.228;21.026;2024-01-07T01:21:18;42.87;;;17.80;;
21392;SDS011;10857;52.228;21.026;2024-01-07T01:23:45;37.67;;;16.87;;
21392;SDS011;10857;52.228;21.026;2024-01-07T01:26:13;36.13;;;16.93;;
21392;SDS011;10857;52.228;21.026;2024-01-07T01:28:40;38.07;;;17.57;;
21392;SDS011;10857;52.228;21.026;2024-01-07T01:31:07;37.67;;;16.47;;
21392;SDS011;10857;52.228;21.026;2024-01-07T01:33:34;38.73;;;16.93;;
21392;SDS011;10857;52.228;21.026;2024-01-07T01:36:04;37.43;;;16.00;;
21392;SDS011;10857;52.228;21.026;2024-01-07T01:38:32;35.37;;;15.27;;
21392;SDS011;10857;52.228;21.026;2024-01-07T01:40:59;35.50;;;16.27;;
21392;SDS011;10857;52.228;21.026;2024-01-07T01:43:27;34.97;;;15.47;;
21392;SDS011;10857;52.228;21.026;2024-01-07T01:45:55;35.87;;;16.37;;
21392;SDS011;10857;52.228;21.026;2024-01-07T01:48:23;33.73;;;15.50;;
21392;SDS011;10857;52.228;21.026;2024-01-07T01:50:51;32.20;;;14.97;;
21392;SDS011;10857;52.228;21.026;2024-01-07T01:53:20;32.77;;;15.40;;
21392;SDS011;10857;52.228;21.026;2024-01-07T01:55:47;30.70;;;14.30;;
21392;SDS011;10857;52.228;21.026;2024-01-07T01:58:14;29.37;;;14.57;;
21392;SDS011;10857;52.228;21.026;2024-01-07T02:00:44;29.90;;;14.27;;
21392;SDS011;10857;52.228;21.026;2024-01-07T02:03:11;32.23;;;14.70;;
21392;SDS011;10857;52.228;21.026;2024-01-07T02:05:39;34.90;;;14.83;;
21392;SDS011;10857;52.228;21.026;2024-01-07T02:08:06;28.97;;;13.40;;
21392;SDS011;10857;52.228;21.026;2024-01-07T02:10:33;29.23;;;13.13;;
21392;SDS011;10857;52.228;21.026;2024-01-07T02:13:06;27.37;;;12.90;;
21392;SDS011;10857;52.228;21.026;2024-01-07T02:15:33;31.33;;;13.53;;
21392;SDS011;10857;52.228;21.026;2024-01-07T02:18:01;27.30;;;12.37;;
21392;SDS011;10857;52.228;21.026;2024-01-07T02:20:28;25.03;;;11.63;;
21392;SDS011;10857;52.228;21.026;2024-01-07T02:22:55;24.90;;;11.97;;
21392;SDS011;10857;52.228;21.026;2024-01-07T02:25:25;22.77;;;11.13;;
21392;SDS011;10857;52.228;21.026;2024-01-07T02:27:52;21.80;;;10.97;;
21392;SDS011;10857;52.228;21.026;2024-01-07T02:30:19;20.93;;;10.60;;
21392;SDS011;10857;52.228;21.026;2024-01-07T02:32:47;23.40;;;10.63;;
21392;SDS011;10857;52.228;21.026;2024-01-07T02:35:14;20.83;;;10.57;;
21392;SDS011;10857;52.228;21.026;2024-01-07T02:37:41;22.60;;;10.40;;
21392;SDS011;10857;52.228;21.026;2024-01-07T02:40:08;20.63;;;10.27;;
21392;SDS011;10857;52.228;21.026;2024-01-07T02:42:36;22.63;;;10.93;;
21392;SDS011;10857;52.228;21.026;2024-01-07T02:45:03;23.37;;;10.77;;
21392;SDS011;10857;52.228;21.026;2024-01-07T02:47:30;23.87;;;11.23;;
21392;SDS011;10857;52.228;21.026;2024-01-07T02:49:57;22.77;;;10.53;;
21392;SDS011;10857;52.228;21.026;2024-01-07T02:52:24;24.20;;;11.00;;
21392;SDS011;10857;52.228;21.026;2024-01-07T02:54:51;24.47;;;11.70;;
21392;SDS011;10857;52.228;21.026;2024-01-07T02:57:18;24.37;;;11.03;;
21392;SDS011;10857;52.228;21.026;2024-01-07T02:59:45;25.80;;;11.90;;
21392;SDS011;10857;52.228;21.026;2024-01-07T03:02:12;24.60;;;10.67;;
21392;SDS011;10857;52.228;21.026;2024-01-07T03:04:39;24.17;;;11.40;;
21392;SDS011;10857;52.228;21.026;2024-01-07T03:07:06;24.90;;;11.87;;
21392;SDS011;10857;52.228;21.026;2024-01-07T03:09:33;21.47;;;11.20;;
21392;SDS011;10857;52.228;21.026;2024-01-07T03:12:00;27.43;;;11.80;;
21392;SDS011;10857;52.228;21.026;2024-01-07T03:14:27;24.87;;;11.93;;
21392;SDS011;10857;52.228;21.026;2024-01-07T03:16:54;26.63;;;12.07;;
21392;SDS011;10857;52.228;21.026;2024-01-07T03:19:21;25.93;;;11.70;;
21392;SDS011;10857;52.228;21.026;2024-01-07T03:21:48;23.83;;;11.20;;
21392;SDS011;10857;52.228;21.026;2024-01-07T03:24:15;29.07;;;12.10;;
21392;SDS011;10857;52.228;21.026;2024-01-07T03:26:42;25.90;;;12.30;;
21392;SDS011;10857;52.228;21.026;2024-01-07T03:29:09;27.87;;;11.70;;
21392;SDS011;10857;52.228;21.026;2024-01-07T03:31:36;24.70;;;11.50;;
21392;SDS011;10857;52.228;21.026;2024-01-07T03:34:04;22.17;;;11.07;;
21392;SDS011;10857;52.228;21.026;2024-01-07T03:36:31;26.53;;;11.97;;
21392;SDS011;10857;52.228;21.026;2024-01-07T03:38:58;23.50;;;12.47;;
21392;SDS011;10857;52.228;21.026;2024-01-07T03:41:25;26.93;;;12.47;;
21392;SDS011;10857;52.228;21.026;2024-01-07T03:43:52;25.37;;;11.73;;
21392;SDS011;10857;52.228;21.026;2024-01-07T03:46:20;25.93;;;11.70;;
21392;SDS011;10857;52.228;21.026;2024-01-07T03:48:47;22.03;;;11.33;;
21392;SDS011;10857;52.228;21.026;2024-01-07T03:51:14;25.63;;;11.67;;
21392;SDS011;10857;52.228;21.026;2024-01-07T03:53:42;25.73;;;11.73;;
21392;SDS011;10857;52.228;21.026;2024-01-07T03:56:09;22.20;;;11.47;;
21392;SDS011;10857;52.228;21.026;2024-01-07T03:58:36;25.80;;;11.93;;
21392;SDS011;10857;52.228;21.026;2024-01-07T04:01:03;24.90;;;11.60;;
21392;SDS011;10857;52.228;21.026;2024-01-07T04:03:30;24.30;;;11.37;;
21392;SDS011;10857;52.228;21.026;2024-01-07T04:05:58;24.73;;;11.53;;
21392;SDS011;10857;52.228;21.026;2024-01-07T04:08:25;24.03;;;11.60;;
21392;SDS011;10857;52.228;21.026;2024-01-07T04:10:52;23.23;;;10.97;;
21392;SDS011;10857;52.228;21.026;2024-01-07T04:13:19;26.63;;;11.87;;
21392;SDS011;10857;52.228;21.026;2024-01-07T04:15:46;23.90;;;11.83;;
21392;SDS011;10857;52.228;21.026;2024-01-07T04:18:14;21.30;;;11.20;;
21392;SDS011;10857;52.228;21.026;2024-01-07T04:20:41;25.67;;;11.63;;
21392;SDS011;10857;52.228;21.026;2024-01-07T04:23:08;23.50;;;11.93;;
21392;SDS011;10857;52.228;21.026;2024-01-07T04:25:35;23.97;;;12.10;;
21392;SDS011;10857;52.228;21.026;2024-01-07T04:28:02;24.07;;;11.90;;
21392;SDS011;10857;52.228;21.026;2024-01-07T04:30:29;25.10;;;11.83;;
21392;SDS011;10857;52.228;21.026;2024-01-07T04:32:56;23.00;;;11.37;;
21392;SDS011;10857;52.228;21.026;2024-01-07T04:35:23;24.87;;;11.10;;
21392;SDS011;10857;52.228;21.026;2024-01-07T04:37:50;22.27;;;11.37;;
21392;SDS011;10857;52.228;21.026;2024-01-07T04:40:17;21.53;;;10.60;;
21392;SDS011;10857;52.228;21.026;2024-01-07T04:42:44;22.97;;;11.27;;
21392;SDS011;10857;52.228;21.026;2024-01-07T04:45:12;23.97;;;11.47;;
21392;SDS011;10857;52.228;21.026;2024-01-07T04:47:39;22.37;;;11.17;;
21392;SDS011;10857;52.228;21.026;2024-01-07T04:50:06;22.53;;;11.30;;
21392;SDS011;10857;52.228;21.026;2024-01-07T04:52:33;22.73;;;10.83;;
21392;SDS011;10857;52.228;21.026;2024-01-07T04:55:00;22.87;;;10.77;;
21392;SDS011;10857;52.228;21.026;2024-01-07T04:57:27;25.13;;;11.27;;
21392;SDS011;10857;52.228;21.026;2024-01-07T04:59:54;23.67;;;10.27;;
21392;SDS011;10857;52.228;21.026;2024-01-07T05:02:21;25.70;;;11.67;;
21392;SDS011;10857;52.228;21.026;2024-01-07T05:04:49;24.17;;;11.10;;
21392;SDS011;10857;52.228;21.026;2024-01-07T05:07:16;21.20;;;10.97;;
21392;SDS011;10857;52.228;21.026;2024-01-07T05:09:43;23.73;;;10.87;;
21392;SDS011;10857;52.228;21.026;2024-01-07T05:12:11;23.00;;;10.77;;
21392;SDS011;10857;52.228;21.026;2024-01-07T05:14:38;24.10;;;11.30;;
21392;SDS011;10857;52.228;21.026;2024-01-07T05:17:05;24.23;;;10.73;;
21392;SDS011;10857;52.228;21.026;2024-01-07T05:19:32;22.67;;;10.63;;
21392;SDS011;10857;52.228;21.026;2024-01-07T05:22:00;22.50;;;10.73;;
21392;SDS011;10857;52.228;21.026;2024-01-07T05:24:27;21.47;;;10.43;;
21392;SDS011;10857;52.228;21.026;2024-01-07T05:26:57;22.43;;;10.67;;
21392;SDS011;10857;52.228;21.026;2024-01-07T05:29:24;23.33;;;11.20;;
21392;SDS011;10857;52.228;21.026;2024-01-07T05:31:50;25.50;;;10.77;;
21392;SDS011;10857;52.228;21.026;2024-01-07T05:34:18;25.30;;;11.13;;
21392;SDS011;10857;52.228;21.026;2024-01-07T05:36:45;24.53;;;10.80;;
21392;SDS011;10857;52.228;21.026;2024-01-07T05:39:12;22.47;;;11.10;;
21392;SDS011;10857;52.228;21.026;2024-01-07T05:41:39;21.30;;;10.80;;
21392;SDS011;10857;52.228;21.026;2024-01-07T05:44:06;26.20;;;10.43;;
21392;SDS011;10857;52.228;21.026;2024-01-07T05:46:34;21.77;;;10.27;;
21392;SDS011;10857;52.228;21.026;2024-01-07T05:49:06;25.40;;;10.73;;
21392;SDS011;10857;52.228;21.026;2024-01-07T05:51:33;22.27;;;10.13;;
21392;SDS011;10857;52.228;21.026;2024-01-07T05:54:00;23.57;;;11.17;;
21392;SDS011;10857;52.228;21.026;2024-01-07T05:56:27;21.03;;;9.90;;
21392;SDS011;10857;52.228;21.026;2024-01-07T05:58:55;20.93;;;10.67;;
21392;SDS011;10857;52.228;21.026;2024-01-07T06:01:22;21.43;;;10.13;;
21392;SDS011;10857;52.228;21.026;2024-01-07T06:03:49;23.63;;;10.67;;
21392;SDS011;10857;52.228;21.026;2024-01-07T06:06:16;20.73;;;10.07;;
21392;SDS011;10857;52.228;21.026;2024-01-07T06:08:43;21.20;;;10.53;;
21392;SDS011;10857;52.228;21.026;2024-01-07T06:11:10;22.63;;;10.60;;
21392;SDS011;10857;52.228;21.026;2024-01-07T06:13:38;22.10;;;10.90;;
21392;SDS011;10857;52.228;21.026;2024-01-07T06:16:05;20.53;;;10.40;;
21392;SDS011;10857;52.228;21.026;2024-01-07T06:18:32;19.73;;;10.20;;
21392;SDS011;10857;52.228;21.026;2024-01-07T06:21:03;21.80;;;10.33;;
21392;SDS011;10857;52.228;21.026;2024-01-07T06:23:33;23.47;;;10.67;;
21392;SDS011;10857;52.228;21.026;2024-01-07T06:26:03;22.60;;;10.90;;
21392;SDS011;10857;52.228;21.026;2024-01-07T06:28:31;24.23;;;10.70;;
21392;SDS011;10857;52.228;21.026;2024-01-07T06:31:01;24.67;;;11.40;;
21392;SDS011;10857;52.228;21.026;2024-01-07T06:33:30;24.53;;;10.60;;
21392;SDS011;10857;52.228;21.026;2024-01-07T06:35:57;20.40;;;10.53;;
21392;SDS011;10857;52.228;21.026;2024-01-07T06:38:24;20.07;;;10.10;;
21392;SDS011;10857;52.228;21.026;2024-01-07T06:40:51;22.20;;;10.50;;
21392;SDS011;10857;52.228;21.026;2024-01-07T06:43:22;20.53;;;10.07;;
21392;SDS011;10857;52.228;21.026;2024-01-07T06:45:49;20.47;;;10.47;;
21392;SDS011;10857;52.228;21.026;2024-01-07T06:48:16;24.23;;;10.90;;
21392;SDS011;10857;52.228;21.026;2024-01-07T06:50:43;23.40;;;11.00;;
21392;SDS011;10857;52.228;21.026;2024-01-07T06:53:10;24.73;;;11.47;;
21392;SDS011;10857;52.228;21.026;2024-01-07T06:55:37;23.00;;;10.90;;
21392;SDS011;10857;52.228;21.026;2024-01-07T06:58:04;24.10;;;10.60;;
21392;SDS011;10857;52.228;21.026;2024-01-07T07:00:31;23.73;;;11.33;;
21392;SDS011;10857;52.228;21.026;2024-01-07T07:02:58;22.97;;;11.23;;
21392;SDS011;10857;52.228;21.026;2024-01-07T07:05:25;23.33;;;10.90;;
21392;SDS011;10857;52.228;21.026;2024-01-07T07:07:53;25.67;;;11.93;;
21392;SDS011;10857;52.228;21.026;2024-01-07T07:10:21;23.83;;;11.30;;
21392;SDS011;10857;52.228;21.026;2024-01-07T07:12:48;27.43;;;11.80;;
21392;SDS011;10857;52.228;21.026;2024-01-07T07:15:17;26.43;;;11.63;;
21392;SDS011;10857;52.228;21.026;2024-01-07T07:17:44;24.47;;;11.97;;
21392;SDS011;10857;52.228;21.026;2024-01-07T07:20:12;21.90;;;11.20;;
21392;SDS011;10857;52.228;21.026;2024-01-07T07:22:39;24.83;;;11.50;;
21392;SDS011;10857;52.228;21.026;2024-01-07T07:25:06;24.93;;;11.77;;
21392;SDS011;10857;52.228;21.026;2024-01-07T07:27:34;22.77;;;11.10;;
21392;SDS011;10857;52.228;21.026;2024-01-07T07:30:01;27.07;;;11.93;;
21392;SDS011;10857;52.228;21.026;2024-01-07T07:32:28;21.13;;;10.90;;
21392;SDS011;10857;52.228;21.026;2024-01-07T07:34:55;26.10;;;11.90;;
21392;SDS011;10857;52.228;21.026;2024-01-07T07:37:22;24.37;;;10.87;;
21392;SDS011;10857;52.228;21.026;2024-01-07T07:39:50;24.53;;;12.33;;
21392;SDS011;10857;52.228;21.026;2024-01-07T07:42:17;23.13;;;12.40;;
21392;SDS011;10857;52.228;21.026;2024-01-07T07:44:44;26.70;;;12.23;;
21392;SDS011;10857;52.228;21.026;2024-01-07T07:47:11;24.93;;;12.00;;
21392;SDS011;10857;52.228;21.026;2024-01-07T07:49:38;24.70;;;11.57;;
21392;SDS011;10857;52.228;21.026;2024-01-07T07:52:07;21.63;;;10.83;;
21392;SDS011;10857;52.228;21.026;2024-01-07T07:54:40;26.63;;;11.23;;
21392;SDS011;10857;52.228;21.026;2024-01-07T07:57:08;22.77;;;11.53;;
21392;SDS011;10857;52.228;21.026;2024-01-07T07:59:35;22.97;;;11.27;;
21392;SDS011;10857;52.228;21.026;2024-01-07T08:02:02;29.50;;;12.03;;
21392;SDS011;10857;52.228;21.026;2024-01-07T08:04:29;22.57;;;10.83;;
21392;SDS011;10857;52.228;21.026;2024-01-07T08:06:57;24.70;;;11.97;;
21392;SDS011;10857;52.228;21.026;2024-01-07T08:09:24;23.50;;;11.53;;
21392;SDS011;10857;52.228;21.026;2024-01-07T08:11:54;27.73;;;11.63;;
21392;SDS011;10857;52.228;21.026;2024-01-07T08:14:21;22.17;;;11.27;;
21392;SDS011;10857;52.228;21.026;2024-01-07T08:16:48;22.83;;;11.60;;
21392;SDS011;10857;52.228;21.026;2024-01-07T08:19:15;22.97;;;11.87;;
21392;SDS011;10857;52.228;21.026;2024-01-07T08:21:42;24.43;;;11.37;;
21392;SDS011;10857;52.228;21.026;2024-01-07T08:24:10;22.40;;;11.40;;
21392;SDS011;10857;52.228;21.026;2024-01-07T08:26:37;25.17;;;11.93;;
21392;SDS011;10857;52.228;21.026;2024-01-07T08:29:05;27.73;;;12.47;;
21392;SDS011;10857;52.228;21.026;2024-01-07T08:31:32;25.10;;;11.80;;
21392;SDS011;10857;52.228;21.026;2024-01-07T08:33:59;23.10;;;11.80;;
21392;SDS011;10857;52.228;21.026;2024-01-07T08:36:28;24.23;;;12.17;;
21392;SDS011;10857;52.228;21.026;2024-01-07T08:38:56;22.77;;;11.53;;
21392;SDS011;10857;52.228;21.026;2024-01-07T08:41:23;22.60;;;11.27;;
21392;SDS011;10857;52.228;21.026;2024-01-07T08:43:50;25.20;;;12.90;;
21392;SDS011;10857;52.228;21.026;2024-01-07T08:46:17;24.97;;;12.43;;
21392;SDS011;10857;52.228;21.026;2024-01-07T08:48:47;24.60;;;11.77;;
21392;SDS011;10857;52.228;21.026;2024-01-07T08:51:14;27.80;;;12.33;;
21392;SDS011;10857;52.228;21.026;2024-01-07T08:53:41;25.07;;;12.30;;
21392;SDS011;10857;52.228;21.026;2024-01-07T08:56:08;20.50;;;11.27;;
21392;SDS011;10857;52.228;21.026;2024-01-07T08:58:47;25.23;;;12.03;;
21392;SDS011;10857;52.228;21.026;2024-01-07T09:01:14;24.77;;;10.97;;
21392;SDS011;10857;52.228;21.026;2024-01-07T09:03:42;22.97;;;11.37;;
21392;SDS011;10857;52.228;21.026;2024-01-07T09:06:09;24.60;;;11.80;;
21392;SDS011;10857;52.228;21.026;2024-01-07T09:08:36;21.97;;;11.53;;
21392;SDS011;10857;52.228;21.026;2024-01-07T09:11:03;24.80;;;12.17;;
21392;SDS011;10857;52.228;21.026;2024-01-07T09:13:32;25.23;;;11.33;;
21392;SDS011;10857;52.228;21.026;2024-01-07T09:16:01;26.77;;;13.07;;
21392;SDS011;10857;52.228;21.026;2024-01-07T09:18:28;25.57;;;12.90;;
21392;SDS011;10857;52.228;21.026;2024-01-07T09:20:55;24.57;;;12.53;;
21392;SDS011;10857;52.228;21.026;2024-01-07T09:23:23;25.57;;;12.63;;
21392;SDS011;10857;52.228;21.026;2024-01-07T09:25:50;24.30;;;12.07;;
21392;SDS011;10857;52.228;21.026;2024-01-07T09:28:17;29.27;;;13.43;;
21392;SDS011;10857;52.228;21.026;2024-01-07T09:30:44;23.60;;;12.13;;
21392;SDS011;10857;52.228;21.026;2024-01-07T09:33:12;26.00;;;14.70;;
21392;SDS011;10857;52.228;21.026;2024-01-07T09:35:39;23.23;;;12.63;;
21392;SDS011;10857;52.228;21.026;2024-01-07T09:38:06;28.97;;;12.63;;
21392;SDS011;10857;52.228;21.026;2024-01-07T09:40:38;25.35;;;16.17;;
21392;SDS011;10857;52.228;21.026;2024-01-07T09:43:06;27.47;;;13.80;;
21392;SDS011;10857;52.228;21.026;2024-01-07T09:45:35;30.63;;;15.90;;
21392;SDS011;10857;52.228;21.026;2024-01-07T09:48:08;24.50;;;12.27;;
21392;SDS011;10857;52.228;21.026;2024-01-07T09:50:35;26.23;;;12.87;;
21392;SDS011;10857;52.228;21.026;2024-01-07T09:53:02;24.97;;;12.30;;
21392;SDS011;10857;52.228;21.026;2024-01-07T09:55:33;25.20;;;12.83;;
21392;SDS011;10857;52.228;21.026;2024-01-07T09:58:04;25.43;;;12.67;;
21392;SDS011;10857;52.228;21.026;2024-01-07T10:00:31;25.97;;;12.17;;
21392;SDS011;10857;52.228;21.026;2024-01-07T10:02:59;28.70;;;13.03;;
21392;SDS011;10857;52.228;21.026;2024-01-07T10:05:26;27.43;;;11.97;;
21392;SDS011;10857;52.228;21.026;2024-01-07T10:07:54;25.97;;;12.27;;
21392;SDS011;10857;52.228;21.026;2024-01-07T10:10:23;25.70;;;12.57;;
21392;SDS011;10857;52.228;21.026;2024-01-07T10:12:50;26.30;;;12.70;;
21392;SDS011;10857;52.228;21.026;2024-01-07T10:15:19;23.40;;;12.10;;
21392;SDS011;10857;52.228;21.026;2024-01-07T10:17:47;24.13;;;12.50;;
21392;SDS011;10857;52.228;21.026;2024-01-07T10:20:16;25.23;;;12.27;;
21392;SDS011;10857;52.228;21.026;2024-01-07T10:22:46;26.27;;;12.60;;
21392;SDS011;10857;52.228;21.026;2024-01-07T10:25:16;26.17;;;12.33;;
21392;SDS011;10857;52.228;21.026;2024-01-07T10:27:44;29.10;;;12.77;;
21392;SDS011;10857;52.228;21.026;2024-01-07T10:30:12;26.73;;;13.07;;
21392;SDS011;10857;52.228;21.026;2024-01-07T10:32:40;25.80;;;13.13;;
21392;SDS011;10857;52.228;21.026;2024-01-07T10:35:12;25.27;;;13.20;;
21392;SDS011;10857;52.228;21.026;2024-01-07T10:37:42;29.80;;;13.83;;
21392;SDS011;10857;52.228;21.026;2024-01-07T10:40:11;29.57;;;13.97;;
21392;SDS011;10857;52.228;21.026;2024-01-07T10:42:39;28.47;;;13.53;;
21392;SDS011;10857;52.228;21.026;2024-01-07T10:45:09;28.30;;;13.40;;
21392;SDS011;10857;52.228;21.026;2024-01-07T10:47:37;29.00;;;13.40;;
21392;SDS011;10857;52.228;21.026;2024-01-07T10:50:08;28.57;;;13.47;;
21392;SDS011;10857;52.228;21.026;2024-01-07T10:52:38;28.53;;;13.23;;
21392;SDS011;10857;52.228;21.026;2024-01-07T10:55:09;28.73;;;12.90;;
21392;SDS011;10857;52.228;21.026;2024-01-07T11:00:14;26.93;;;12.60;;
21392;SDS011;10857;52.228;21.026;2024-01-07T11:02:59;33.80;;;13.37;;
21392;SDS011;10857;52.228;21.026;2024-01-07T11:05:37;30.40;;;13.27;;
21392;SDS011;10857;52.228;21.026;2024-01-07T11:11:10;27.50;;;12.60;;
21392;SDS011;10857;52.228;21.026;2024-01-07T11:13:41;28.73;;;12.90;;
21392;SDS011;10857;52.228;21.026;2024-01-07T11:16:08;27.40;;;13.30;;
21392;SDS011;10857;52.228;21.026;2024-01-07T11:18:46;26.60;;;12.87;;
21392;SDS011;10857;52.228;21.026;2024-01-07T11:21:21;26.60;;;12.40;;
21392;SDS011;10857;52.228;21.026;2024-01-07T11:23:51;26.63;;;12.30;;
21392;SDS011;10857;52.228;21.026;2024-01-07T11:26:19;27.90;;;12.97;;
21392;SDS011;10857;52.228;21.026;2024-01-07T11:31:17;25.87;;;12.77;;
21392;SDS011;10857;52.228;21.026;2024-01-07T11:33:46;28.37;;;13.30;;
21392;SDS011;10857;52.228;21.026;2024-01-07T11:36:17;25.93;;;12.57;;
21392;SDS011;10857;52.228;21.026;2024-01-07T11:38:47;25.10;;;12.63;;
21392;SDS011;10857;52.228;21.026;2024-01-07T11:41:20;27.00;;;12.53;;
21392;SDS011;10857;52.228;21.026;2024-01-07T11:43:52;26.67;;;12.83;;
21392;SDS011;10857;52.228;21.026;2024-01-07T11:46:21;24.57;;;12.23;;
21392;SDS011;10857;52.228;21.026;2024-01-07T11:48:52;23.13;;;10.73;;
21392;SDS011;10857;52.228;21.026;2024-01-07T11:51:26;22.37;;;11.07;;
21392;SDS011;10857;52.228;21.026;2024-01-07T11:53:54;22.47;;;10.63;;
21392;SDS011;10857;52.228;21.026;2024-01-07T11:56:21;21.63;;;10.80;;
21392;SDS011;10857;52.228;21.026;2024-01-07T11:58:48;19.60;;;10.53;;
21392;SDS011;10857;52.228;21.026;2024-01-07T12:01:15;20.73;;;10.90;;
21392;SDS011;10857;52.228;21.026;2024-01-07T12:03:43;23.43;;;11.33;;
21392;SDS011;10857;52.228;21.026;2024-01-07T12:06:11;25.10;;;11.60;;
21392;SDS011;10857;52.228;21.026;2024-01-07T12:08:42;22.43;;;11.67;;
21392;SDS011;10857;52.228;21.026;2024-01-07T12:11:13;22.97;;;10.90;;
21392;SDS011;10857;52.228;21.026;2024-01-07T12:13:41;20.43;;;10.13;;
21392;SDS011;10857;52.228;21.026;2024-01-07T12:16:09;20.70;;;9.10;;
21392;SDS011;10857;52.228;21.026;2024-01-07T12:18:40;19.00;;;9.90;;
21392;SDS011;10857;52.228;21.026;2024-01-07T12:21:07;18.53;;;9.50;;
21392;SDS011;10857;52.228;21.026;2024-01-07T12:23:35;19.63;;;10.10;;
21392;SDS011;10857;52.228;21.026;2024-01-07T12:26:10;20.03;;;10.43;;
21392;SDS011;10857;52.228;21.026;2024-01-07T12:28:38;23.00;;;10.80;;
21392;SDS011;10857;52.228;21.026;2024-01-07T12:31:06;20.30;;;10.50;;
21392;SDS011;10857;52.228;21.026;2024-01-07T12:33:36;22.27;;;10.70;;
21392;SDS011;10857;52.228;21.026;2024-01-07T12:36:05;22.83;;;11.43;;
21392;SDS011;10857;52.228;21.026;2024-01-07T12:38:36;24.83;;;11.80;;
21392;SDS011;10857;52.228;21.026;2024-01-07T12:41:04;26.17;;;11.47;;
21392;SDS011;10857;52.228;21.026;2024-01-07T12:43:31;21.73;;;11.07;;
21392;SDS011;10857;52.228;21.026;2024-01-07T12:45:59;21.47;;;10.90;;
21392;SDS011;10857;52.228;21.026;2024-01-07T12:48:32;19.60;;;10.80;;
21392;SDS011;10857;52.228;21.026;2024-01-07T12:51:00;20.92;;;12.93;;
21392;SDS011;10857;52.228;21.026;2024-01-07T12:53:27;22.43;;;11.27;;
21392;SDS011;10857;52.228;21.026;2024-01-07T12:55:55;19.17;;;10.70;;
21392;SDS011;10857;52.228;21.026;2024-01-07T12:58:22;21.63;;;10.53;;
21392;SDS011;10857;52.228;21.026;2024-01-07T13:00:50;20.90;;;9.90;;
21392;SDS011;10857;52.228;21.026;2024-01-07T13:03:17;24.70;;;11.20;;
21392;SDS011;10857;52.228;21.026;2024-01-07T13:05:46;21.40;;;10.10;;
21392;SDS011;10857;52.228;21.026;2024-01-07T13:08:17;20.10;;;9.67;;
21392;SDS011;10857;52.228;21.026;2024-01-07T13:10:52;20.17;;;10.30;;
21392;SDS011;10857;52.228;21.026;2024-01-07T13:13:21;19.70;;;10.17;;
21392;SDS011;10857;52.228;21.026;2024-01-07T13:15:48;22.03;;;11.00;;
21392;SDS011;10857;52.228;21.026;2024-01-07T13:18:17;21.37;;;10.60;;
21392;SDS011;10857;52.228;21.026;2024-01-07T13:20:45;22.13;;;10.80;;
21392;SDS011;10857;52.228;21.026;2024-01-07T13:23:13;24.87;;;11.50;;
21392;SDS011;10857;52.228;21.026;2024-01-07T13:25:40;25.30;;;12.40;;
21392;SDS011;10857;52.228;21.026;2024-01-07T13:28:07;22.20;;;11.13;;
21392;SDS011;10857;52.228;21.026;2024-01-07T13:30:37;23.77;;;10.77;;
21392;SDS011;10857;52.228;21.026;2024-01-07T13:33:07;21.43;;;10.50;;
21392;SDS011;10857;52.228;21.026;2024-01-07T13:35:34;19.87;;;10.47;;
21392;SDS011;10857;52.228;21.026;2024-01-07T13:38:01;19.53;;;9.53;;
21392;SDS011;10857;52.228;21.026;2024-01-07T13:40:29;19.53;;;10.10;;
21392;SDS011;10857;52.228;21.026;2024-01-07T13:42:56;24.03;;;10.33;;
21392;SDS011;10857;52.228;21.026;2024-01-07T13:45:23;18.10;;;9.27;;
21392;SDS011;10857;52.228;21.026;2024-01-07T13:47:51;17.93;;;8.97;;
21392;SDS011;10857;52.228;21.026;2024-01-07T13:50:18;19.57;;;9.70;;
21392;SDS011;10857;52.228;21.026;2024-01-07T13:52:45;22.60;;;10.40;;
21392;SDS011;10857;52.228;21.026;2024-01-07T13:55:13;20.80;;;10.23;;
21392;SDS011;10857;52.228;21.026;2024-01-07T13:57:40;27.07;;;11.30;;
21392;SDS011;10857;52.228;21.026;2024-01-07T14:00:09;24.63;;;11.17;;
21392;SDS011;10857;52.228;21.026;2024-01-07T14:02:37;21.23;;;10.53;;
21392;SDS011;10857;52.228;21.026;2024-01-07T14:05:05;21.43;;;10.93;;
21392;SDS011;10857;52.228;21.026;2024-01-07T14:07:37;22.67;;;10.83;;
21392;SDS011;10857;52.228;21.026;2024-01-07T14:10:05;19.30;;;10.63;;
21392;SDS011;10857;52.228;21.026;2024-01-07T14:12:34;24.17;;;11.20;;
21392;SDS011;10857;52.228;21.026;2024-01-07T14:15:01;25.77;;;12.37;;
21392;SDS011;10857;52.228;21.026;2024-01-07T14:17:28;23.83;;;11.63;;
21392;SDS011;10857;52.228;21.026;2024-01-07T14:19:55;22.43;;;11.20;;